createdAt,value
2019-05-22T00:02:21.820Z,6.03
2019-05-22T00:05:01.283Z,7.00
2019-05-22T00:07:32.858Z,7.13
2019-05-22T00:10:02.830Z,5.03
2019-05-22T00:12:46.051Z,9.13
2019-05-22T00:15:08.244Z,7.60
2019-05-22T00:17:39.376Z,7.13
2019-05-22T00:20:11.308Z,6.87
2019-05-22T00:22:43.233Z,6.07
2019-05-22T00:25:18.258Z,10.00
2019-05-22T00:27:50.113Z,6.47
2019-05-22T00:30:20.368Z,5.83
2019-05-22T00:32:50.461Z,6.33
2019-05-22T00:35:23.330Z,5.70
2019-05-22T00:37:56.226Z,4.33
2019-05-22T00:40:29.227Z,6.70
2019-05-22T00:43:05.054Z,7.87
2019-05-22T00:45:33.229Z,7.73
2019-05-22T00:48:04.686Z,6.90
2019-05-22T00:50:58.383Z,4.93
2019-05-22T00:53:48.293Z,6.60
2019-05-22T00:56:31.662Z,6.63
2019-05-22T00:59:08.371Z,6.23
2019-05-22T01:01:45.504Z,4.33
2019-05-22T01:04:16.998Z,6.43
2019-05-22T01:06:48.461Z,6.90
2019-05-22T01:09:25.264Z,6.00
2019-05-22T01:11:55.973Z,5.73
2019-05-22T01:14:41.926Z,5.67
2019-05-22T01:16:59.985Z,6.57
2019-05-22T01:19:30.232Z,6.07
2019-05-22T01:22:02.221Z,5.70
2019-05-22T01:24:33.062Z,8.87
2019-05-22T01:27:04.573Z,9.50
2019-05-22T01:29:36.260Z,5.30
2019-05-22T01:32:17.995Z,8.40
2019-05-22T01:34:48.538Z,8.27
2019-05-22T01:37:19.174Z,8.10
2019-05-22T01:40:15.048Z,9.27
2019-05-22T01:42:48.082Z,6.10
2019-05-22T01:45:20.632Z,6.57
2019-05-22T01:47:56.446Z,6.47
2019-05-22T01:50:38.270Z,8.23
2019-05-22T01:53:08.498Z,7.17
2019-05-22T01:55:39.763Z,7.50
2019-05-22T01:58:11.050Z,9.10
2019-05-22T02:00:42.122Z,8.97
2019-05-22T02:03:14.301Z,5.77
2019-05-22T02:05:44.247Z,10.60
2019-05-22T02:08:15.106Z,10.33
2019-05-22T02:10:45.934Z,10.53
2019-05-22T02:13:20.054Z,10.33
2019-05-22T02:15:50.069Z,13.47
2019-05-22T02:18:23.023Z,10.27
2019-05-22T02:20:53.165Z,10.27
2019-05-22T02:23:23.061Z,17.77
2019-05-22T02:25:52.939Z,14.00
2019-05-22T02:28:24.666Z,11.87
2019-05-22T02:30:55.911Z,13.33
2019-05-22T02:33:26.970Z,9.80
2019-05-22T02:35:56.830Z,10.97
2019-05-22T02:38:26.978Z,10.70
2019-05-22T02:40:59.083Z,7.40
2019-05-22T02:43:30.105Z,12.73
2019-05-22T02:46:00.227Z,11.50
2019-05-22T02:48:30.822Z,10.50
2019-05-22T02:51:01.826Z,8.23
2019-05-22T02:53:32.989Z,9.10
2019-05-22T02:56:03.830Z,13.30
2019-05-22T02:58:34.459Z,8.73
2019-05-22T03:01:06.654Z,8.33
2019-05-22T03:03:37.469Z,9.33
2019-05-22T03:06:11.135Z,14.70
2019-05-22T03:09:10.181Z,10.27
2019-05-22T03:11:43.665Z,8.87
2019-05-22T03:14:15.011Z,10.50
2019-05-22T03:16:51.352Z,12.00
2019-05-22T03:19:36.455Z,9.13
2019-05-22T03:22:20.548Z,10.13
2019-05-22T03:24:51.450Z,9.90
2019-05-22T03:27:29.240Z,8.97
2019-05-22T03:29:59.836Z,12.23
2019-05-22T03:32:30.429Z,10.40
2019-05-22T03:35:01.211Z,10.67
2019-05-22T03:37:31.152Z,11.87
2019-05-22T03:40:01.054Z,11.00
2019-05-22T03:42:30.897Z,11.93
2019-05-22T03:45:01.939Z,14.03
2019-05-22T03:47:32.334Z,10.07
2019-05-22T03:50:04.292Z,9.30
2019-05-22T03:52:34.635Z,9.83
2019-05-22T03:55:05.065Z,10.93
2019-05-22T03:57:36.159Z,12.00
2019-05-22T04:00:07.751Z,11.27
2019-05-22T04:02:38.740Z,10.80
2019-05-22T04:05:09.964Z,13.37
2019-05-22T04:07:41.246Z,11.27
2019-05-22T04:10:12.056Z,15.40
2019-05-22T04:12:43.115Z,12.50
2019-05-22T04:15:13.717Z,13.87
2019-05-22T04:17:45.519Z,9.73
2019-05-22T04:20:19.233Z,11.33
2019-05-22T04:22:55.762Z,9.93
2019-05-22T04:25:26.783Z,11.37
2019-05-22T04:27:56.982Z,11.93
2019-05-22T04:30:27.600Z,12.80
2019-05-22T04:32:58.575Z,7.10
2019-05-22T04:35:28.888Z,9.17
2019-05-22T04:37:58.749Z,15.70
2019-05-22T04:40:49.123Z,11.00
2019-05-22T04:43:24.730Z,10.10
2019-05-22T04:45:56.870Z,9.63
2019-05-22T04:48:27.674Z,10.30
2019-05-22T04:51:01.999Z,13.17
2019-05-22T04:53:31.940Z,10.30
2019-05-22T04:56:02.235Z,8.50
2019-05-22T04:58:33.563Z,9.47
2019-05-22T05:01:03.772Z,9.27
2019-05-22T05:03:33.803Z,9.90
2019-05-22T05:06:06.917Z,6.87
2019-05-22T05:08:37.481Z,11.00
2019-05-22T05:11:08.113Z,9.80
2019-05-22T05:13:38.117Z,6.20
2019-05-22T05:16:08.090Z,9.80
2019-05-22T05:18:38.085Z,7.43
2019-05-22T05:21:08.511Z,10.63
2019-05-22T05:23:38.830Z,11.07
2019-05-22T05:26:08.871Z,9.60
2019-05-22T05:28:39.078Z,7.83
2019-05-22T05:31:10.811Z,9.03
2019-05-22T05:34:07.398Z,9.67
2019-05-22T05:36:38.321Z,10.20
2019-05-22T05:39:13.296Z,8.53
2019-05-22T05:41:43.205Z,9.70
2019-05-22T05:44:13.062Z,12.47
2019-05-22T05:46:43.269Z,10.23
2019-05-22T05:49:13.719Z,8.80
2019-05-22T05:51:45.402Z,13.87
2019-05-22T05:54:20.362Z,9.37
2019-05-22T05:56:51.268Z,10.90
2019-05-22T05:59:22.702Z,12.97
2019-05-22T06:01:54.688Z,10.37
2019-05-22T06:04:34.866Z,9.00
2019-05-22T06:07:18.847Z,12.93
2019-05-22T06:10:23.839Z,12.50
2019-05-22T06:12:53.806Z,11.87
2019-05-22T06:15:45.849Z,12.90
2019-05-22T06:18:35.413Z,12.97
2019-05-22T06:21:07.265Z,9.87
2019-05-22T06:24:15.250Z,10.33
2019-05-22T06:27:02.280Z,11.13
2019-05-22T06:29:41.870Z,9.07
2019-05-22T06:33:00.217Z,10.77
2019-05-22T06:35:35.258Z,10.83
2019-05-22T06:38:14.203Z,7.30
2019-05-22T06:40:45.277Z,16.10
2019-05-22T06:44:01.233Z,15.63
2019-05-22T06:46:45.623Z,11.57
2019-05-22T06:49:45.035Z,14.37
2019-05-22T06:52:15.921Z,16.17
2019-05-22T06:54:46.228Z,13.57
2019-05-22T06:57:22.766Z,15.03
2019-05-22T07:00:11.628Z,17.63
2019-05-22T07:02:25.113Z,21.63
2019-05-22T07:04:55.797Z,16.67
2019-05-22T07:07:27.030Z,20.43
2019-05-22T07:09:57.759Z,25.03
2019-05-22T07:12:29.034Z,19.33
2019-05-22T07:15:30.919Z,20.87
2019-05-22T07:18:03.110Z,18.30
2019-05-22T07:20:35.575Z,17.13
2019-05-22T07:23:09.039Z,20.03
2019-05-22T07:25:41.669Z,22.77
2019-05-22T07:28:12.508Z,17.43
2019-05-22T07:30:42.549Z,25.23
2019-05-22T07:33:13.053Z,23.17
2019-05-22T07:36:04.784Z,23.33
2019-05-22T07:38:17.454Z,17.00
2019-05-22T07:40:50.425Z,24.17
2019-05-22T07:43:20.430Z,23.70
2019-05-22T07:45:51.625Z,24.37
2019-05-22T07:48:24.089Z,23.60
2019-05-22T07:50:56.187Z,20.60
2019-05-22T07:53:27.144Z,25.33
2019-05-22T07:55:59.460Z,26.23
2019-05-22T07:58:31.022Z,29.40
2019-05-22T08:01:03.318Z,21.13
2019-05-22T08:03:34.146Z,24.50
2019-05-22T08:06:06.170Z,27.10
2019-05-22T08:08:37.044Z,30.53
2019-05-22T08:11:07.434Z,29.90
2019-05-22T08:13:38.454Z,24.87
2019-05-22T08:16:09.713Z,25.37
2019-05-22T08:18:41.317Z,23.40
2019-05-22T08:21:11.825Z,22.23
2019-05-22T08:23:42.299Z,26.00
2019-05-22T08:26:15.140Z,29.20
2019-05-22T08:28:45.422Z,24.17
2019-05-22T08:31:17.214Z,24.87
2019-05-22T08:33:47.488Z,21.17
2019-05-22T08:36:18.081Z,23.43
2019-05-22T08:38:48.602Z,21.73
2019-05-22T08:41:23.736Z,23.20
2019-05-22T08:44:14.552Z,18.27
2019-05-22T08:46:26.336Z,23.50
2019-05-22T08:48:56.931Z,21.07
2019-05-22T08:51:27.085Z,23.27
2019-05-22T08:53:58.580Z,19.57
2019-05-22T08:56:31.960Z,27.33
2019-05-22T08:59:18.399Z,19.83
2019-05-22T09:01:34.707Z,19.07
2019-05-22T09:04:05.472Z,25.27
2019-05-22T09:06:35.611Z,29.13
2019-05-22T09:09:06.385Z,19.43
2019-05-22T09:11:36.240Z,28.10
2019-05-22T09:14:06.313Z,25.37
2019-05-22T09:16:36.539Z,23.07
2019-05-22T09:19:06.494Z,22.77
2019-05-22T09:21:40.575Z,25.43
2019-05-22T09:24:13.821Z,22.10
2019-05-22T09:26:44.626Z,25.13
2019-05-22T09:29:15.914Z,19.50
2019-05-22T09:31:45.689Z,21.10
2019-05-22T09:34:15.994Z,24.53
2019-05-22T09:36:45.998Z,19.27
2019-05-22T09:39:16.017Z,20.60
2019-05-22T09:41:45.972Z,21.07
2019-05-22T09:44:16.578Z,19.93
2019-05-22T09:46:47.517Z,21.77
2019-05-22T09:49:17.587Z,22.53
2019-05-22T09:51:47.543Z,18.50
2019-05-22T09:54:17.849Z,23.50
2019-05-22T09:56:47.860Z,21.10
2019-05-22T09:59:19.639Z,20.83
2019-05-22T10:01:50.118Z,21.77
2019-05-22T10:04:20.688Z,19.67
2019-05-22T10:06:51.117Z,19.60
2019-05-22T10:09:21.054Z,19.47
2019-05-22T10:11:51.694Z,21.23
2019-05-22T10:14:23.047Z,18.43
2019-05-22T10:16:53.152Z,22.20
2019-05-22T10:19:24.173Z,16.70
2019-05-22T10:21:54.614Z,16.03
2019-05-22T10:24:24.950Z,17.77
2019-05-22T10:26:55.198Z,16.93
2019-05-22T10:29:25.426Z,17.43
2019-05-22T10:31:55.429Z,17.97
2019-05-22T10:34:25.578Z,17.47
2019-05-22T10:36:56.058Z,15.70
2019-05-22T10:39:26.270Z,16.53
2019-05-22T10:41:56.433Z,16.80
2019-05-22T10:44:26.435Z,14.67
2019-05-22T10:46:56.889Z,9.33
2019-05-22T10:49:26.928Z,17.37
2019-05-22T10:51:57.065Z,14.63
2019-05-22T10:54:27.012Z,16.53
2019-05-22T10:56:56.917Z,12.60
2019-05-22T10:59:28.255Z,18.93
2019-05-22T11:01:58.762Z,18.90
2019-05-22T11:04:29.533Z,18.07
2019-05-22T11:06:59.630Z,16.23
2019-05-22T11:09:30.700Z,14.97
2019-05-22T11:12:01.206Z,15.17
2019-05-22T11:14:31.303Z,13.13
2019-05-22T11:17:01.624Z,18.20
2019-05-22T11:19:32.977Z,21.43
2019-05-22T11:22:03.225Z,16.97
2019-05-22T11:24:33.685Z,22.73
2019-05-22T11:27:03.600Z,21.90
2019-05-22T11:29:34.106Z,22.90
2019-05-22T11:32:05.165Z,20.03
2019-05-22T11:34:35.751Z,19.73
2019-05-22T11:37:05.938Z,18.80
2019-05-22T11:39:39.844Z,18.87
2019-05-22T11:42:10.339Z,20.83
2019-05-22T11:44:40.938Z,19.60
2019-05-22T11:47:11.979Z,15.67
2019-05-22T11:49:41.970Z,25.43
2019-05-22T11:52:15.365Z,19.70
2019-05-22T11:54:45.755Z,15.83
2019-05-22T11:57:16.530Z,17.93
2019-05-22T11:59:47.913Z,17.70
2019-05-22T12:02:18.306Z,22.20
2019-05-22T12:04:49.115Z,19.83
2019-05-22T12:07:19.367Z,17.30
2019-05-22T12:09:49.410Z,22.47
2019-05-22T12:12:20.205Z,23.47
2019-05-22T12:14:50.319Z,16.47
2019-05-22T12:17:36.652Z,14.63
2019-05-22T12:19:53.485Z,13.63
2019-05-22T12:22:23.379Z,18.97
2019-05-22T12:24:53.302Z,22.47
2019-05-22T12:27:23.399Z,11.17
2019-05-22T12:29:53.410Z,16.33
2019-05-22T12:32:23.430Z,11.33
2019-05-22T12:34:53.768Z,15.80
2019-05-22T12:37:24.772Z,24.43
2019-05-22T12:39:54.753Z,23.37
2019-05-22T12:42:26.118Z,13.87
2019-05-22T12:44:56.314Z,18.97
2019-05-22T12:47:26.662Z,19.27
2019-05-22T12:49:57.013Z,18.10
2019-05-22T12:52:27.449Z,22.87
2019-05-22T12:54:57.421Z,17.37
2019-05-22T12:57:27.585Z,17.23
2019-05-22T13:00:02.294Z,16.80
2019-05-22T13:02:31.526Z,15.20
2019-05-22T13:05:01.569Z,16.90
2019-05-22T13:07:32.465Z,20.40
2019-05-22T13:10:02.559Z,21.40
2019-05-22T13:12:33.206Z,18.30
2019-05-22T13:15:09.985Z,17.47
2019-05-22T13:17:35.686Z,13.93
2019-05-22T13:20:08.061Z,16.67
2019-05-22T13:22:40.890Z,19.00
2019-05-22T13:25:12.103Z,16.83
2019-05-22T13:27:43.491Z,17.73
2019-05-22T13:30:15.414Z,18.30
2019-05-22T13:32:45.648Z,15.53
2019-05-22T13:35:17.574Z,19.57
2019-05-22T13:37:47.787Z,20.23
2019-05-22T13:40:27.636Z,21.57
2019-05-22T13:42:50.543Z,18.20
2019-05-22T13:45:29.057Z,17.70
2019-05-22T13:47:53.530Z,18.10
2019-05-22T13:50:28.710Z,18.27
2019-05-22T13:52:58.252Z,18.30
2019-05-22T13:55:28.659Z,22.10
2019-05-22T13:57:59.792Z,20.27
2019-05-22T14:00:30.238Z,20.90
2019-05-22T14:03:00.718Z,21.90
2019-05-22T14:05:33.086Z,22.60
2019-05-22T14:08:03.395Z,22.83
2019-05-22T14:10:33.922Z,23.30
2019-05-22T14:13:04.335Z,21.23
2019-05-22T14:15:48.896Z,17.40
2019-05-22T14:18:06.718Z,25.73
2019-05-22T14:20:38.394Z,18.40
2019-05-22T14:23:08.636Z,20.80
2019-05-22T14:25:38.622Z,16.97
2019-05-22T14:28:08.676Z,20.33
2019-05-22T14:30:39.083Z,16.37
2019-05-22T14:33:09.186Z,17.37
2019-05-22T14:35:48.846Z,19.90
2019-05-22T14:38:14.691Z,18.73
2019-05-22T14:40:44.742Z,15.03
2019-05-22T14:43:14.662Z,15.93
2019-05-22T14:45:44.698Z,15.60
2019-05-22T14:48:15.651Z,15.10
2019-05-22T14:50:45.928Z,17.67
2019-05-22T14:53:16.570Z,12.30
2019-05-22T14:55:47.866Z,13.73
2019-05-22T14:58:18.684Z,17.83
2019-05-22T15:00:49.801Z,19.70
2019-05-22T15:03:20.898Z,14.77
2019-05-22T15:05:52.781Z,12.73
2019-05-22T15:08:22.998Z,19.87
2019-05-22T15:10:53.269Z,16.90
2019-05-22T15:13:24.491Z,16.20
2019-05-22T15:15:54.638Z,13.50
2019-05-22T15:18:24.636Z,13.43
2019-05-22T15:21:01.069Z,13.93
2019-05-22T15:23:36.160Z,14.60
2019-05-22T15:26:06.536Z,15.40
2019-05-22T15:28:36.565Z,15.33
2019-05-22T15:31:07.590Z,13.07
2019-05-22T15:33:37.722Z,13.63
2019-05-22T15:36:10.428Z,14.03
2019-05-22T15:38:42.159Z,12.23
2019-05-22T15:41:12.476Z,10.17
2019-05-22T15:43:51.544Z,10.57
2019-05-22T15:46:18.777Z,11.47
2019-05-22T15:48:51.626Z,12.57
2019-05-22T15:51:25.954Z,9.93
2019-05-22T15:53:57.917Z,10.30
2019-05-22T15:56:30.766Z,11.83
2019-05-22T15:59:03.413Z,8.70
2019-05-22T16:01:35.314Z,8.73
2019-05-22T16:04:07.673Z,10.73
2019-05-22T16:06:39.353Z,10.33
2019-05-22T16:09:13.081Z,12.43
2019-05-22T16:11:43.994Z,13.13
2019-05-22T16:14:14.755Z,8.03
2019-05-22T16:16:46.827Z,10.03
2019-05-22T16:19:19.222Z,7.13
2019-05-22T16:21:50.981Z,8.33
2019-05-22T16:24:21.422Z,8.43
2019-05-22T16:26:51.566Z,10.00
2019-05-22T16:29:23.827Z,9.50
2019-05-22T16:31:55.991Z,7.27
2019-05-22T16:34:28.500Z,7.27
2019-05-22T16:37:03.220Z,7.83
2019-05-22T16:39:31.703Z,8.43
2019-05-22T16:42:01.837Z,7.67
2019-05-22T16:44:32.046Z,8.10
2019-05-22T16:47:02.306Z,8.00
2019-05-22T16:49:32.641Z,6.80
2019-05-22T16:52:06.771Z,7.80
2019-05-22T16:54:39.492Z,6.07
2019-05-22T16:57:11.541Z,17.57
2019-05-22T16:59:41.656Z,7.23
2019-05-22T17:02:14.023Z,7.07
2019-05-22T17:04:44.078Z,5.70
2019-05-22T17:07:14.602Z,6.37
2019-05-22T17:09:45.926Z,6.67
2019-05-22T17:12:18.144Z,6.30
2019-05-22T17:14:49.398Z,4.97
2019-05-22T17:17:20.391Z,8.10
2019-05-22T17:19:50.687Z,6.27
2019-05-22T17:22:20.908Z,7.50
2019-05-22T17:24:51.230Z,5.33
2019-05-22T17:27:22.536Z,5.43
2019-05-22T17:29:52.937Z,6.23
2019-05-22T17:32:24.674Z,5.03
2019-05-22T17:34:54.725Z,4.33
2019-05-22T17:37:26.519Z,4.63
2019-05-22T17:39:56.761Z,6.03
2019-05-22T17:42:28.145Z,5.53
2019-05-22T17:44:58.423Z,4.37
2019-05-22T17:47:30.526Z,4.67
2019-05-22T17:50:01.686Z,6.03
2019-05-22T17:52:32.716Z,6.17
2019-05-22T17:55:04.675Z,5.17
2019-05-22T17:57:34.646Z,7.13
2019-05-22T18:00:07.282Z,5.43
2019-05-22T18:02:38.938Z,5.43
2019-05-22T18:05:09.618Z,5.83
2019-05-22T18:07:39.978Z,4.73
2019-05-22T18:10:11.567Z,6.80
2019-05-22T18:12:41.857Z,5.57
2019-05-22T18:15:13.344Z,5.67
2019-05-22T18:17:43.862Z,5.40
2019-05-22T18:20:14.930Z,9.13
2019-05-22T18:22:46.052Z,5.33
2019-05-22T18:25:16.128Z,6.10
2019-05-22T18:27:48.841Z,6.40
2019-05-22T18:30:23.022Z,5.80
2019-05-22T18:32:55.656Z,4.47
2019-05-22T18:35:26.381Z,5.93
2019-05-22T18:37:56.390Z,6.40
2019-05-22T18:40:26.299Z,5.80
2019-05-22T18:42:56.362Z,5.13
2019-05-22T18:45:27.583Z,5.10
2019-05-22T18:47:57.541Z,7.77
2019-05-22T18:50:27.526Z,15.20
2019-05-22T18:52:57.485Z,6.77
2019-05-22T18:55:27.670Z,7.13
2019-05-22T18:57:57.450Z,7.03
2019-05-22T19:00:29.149Z,7.17
2019-05-22T19:02:59.447Z,8.27
2019-05-22T19:05:31.886Z,10.57
2019-05-22T19:08:02.229Z,9.30
2019-05-22T19:10:33.354Z,24.53
2019-05-22T19:13:03.524Z,20.53
2019-05-22T19:15:33.884Z,16.20
2019-05-22T19:18:04.353Z,7.67
2019-05-22T19:20:34.437Z,8.30
2019-05-22T19:23:05.005Z,7.77
2019-05-22T19:25:35.392Z,8.50
2019-05-22T19:28:05.553Z,10.03
2019-05-22T19:30:36.203Z,8.00
2019-05-22T19:33:06.601Z,6.87
2019-05-22T19:35:36.513Z,7.13
2019-05-22T19:38:07.061Z,9.27
2019-05-22T19:40:37.543Z,18.33
2019-05-22T19:43:08.254Z,19.53
2019-05-22T19:45:38.312Z,9.17
2019-05-22T19:48:09.994Z,12.13
2019-05-22T19:50:42.033Z,10.03
2019-05-22T19:53:18.769Z,9.20
2019-05-22T19:55:45.390Z,9.50
2019-05-22T19:58:15.640Z,9.57
2019-05-22T20:00:47.689Z,9.07
2019-05-22T20:03:19.889Z,11.50
2019-05-22T20:05:50.726Z,11.13
2019-05-22T20:08:22.482Z,11.67
2019-05-22T20:10:53.647Z,12.50
2019-05-22T20:13:25.009Z,11.07
2019-05-22T20:15:55.820Z,13.53
2019-05-22T20:18:26.206Z,10.77
2019-05-22T20:20:58.161Z,11.07
2019-05-22T20:23:36.036Z,11.47
2019-05-22T20:26:00.951Z,12.87
2019-05-22T20:28:31.316Z,18.33
2019-05-22T20:31:06.383Z,13.33
2019-05-22T20:33:37.997Z,13.50
2019-05-22T20:36:08.704Z,15.40
2019-05-22T20:38:40.086Z,14.80
2019-05-22T20:41:10.659Z,12.30
2019-05-22T20:43:42.133Z,12.63
2019-05-22T20:46:15.210Z,11.00
2019-05-22T20:48:46.880Z,11.30
2019-05-22T20:51:18.302Z,12.80
2019-05-22T20:53:54.076Z,12.40
2019-05-22T20:56:23.870Z,12.03
2019-05-22T20:58:55.244Z,16.17
2019-05-22T21:01:26.886Z,14.40
2019-05-22T21:03:59.619Z,14.50
2019-05-22T21:06:32.558Z,13.00
2019-05-22T21:09:04.762Z,13.23
2019-05-22T21:11:36.418Z,15.40
2019-05-22T21:14:06.848Z,14.53
2019-05-22T21:16:37.122Z,12.20
2019-05-22T21:19:07.781Z,15.17
2019-05-22T21:21:38.139Z,15.30
2019-05-22T21:24:11.684Z,13.50
2019-05-22T21:26:41.405Z,14.73
2019-05-22T21:29:12.180Z,14.37
2019-05-22T21:31:42.631Z,21.33
2019-05-22T21:34:12.715Z,16.43
2019-05-22T21:36:43.239Z,14.43
2019-05-22T21:39:15.018Z,12.53
2019-05-22T21:41:45.143Z,17.10
2019-05-22T21:44:15.194Z,15.93
2019-05-22T21:46:45.234Z,13.50
2019-05-22T21:49:15.573Z,16.63
2019-05-22T21:51:45.759Z,13.60
2019-05-22T21:54:15.805Z,13.37
2019-05-22T21:56:45.903Z,12.43
2019-05-22T21:59:15.800Z,15.03
2019-05-22T22:01:51.865Z,11.97
2019-05-22T22:04:26.782Z,13.63
2019-05-22T22:06:56.934Z,13.30
2019-05-22T22:09:27.610Z,13.97
2019-05-22T22:11:58.530Z,13.40
2019-05-22T22:14:29.102Z,13.87
2019-05-22T22:16:59.945Z,20.50
2019-05-22T22:19:31.357Z,14.80
2019-05-22T22:22:01.734Z,14.93
2019-05-22T22:24:33.546Z,14.70
2019-05-22T22:27:04.043Z,16.10
2019-05-22T22:29:34.599Z,17.93
2019-05-22T22:32:06.098Z,17.83
2019-05-22T22:34:46.323Z,18.90
2019-05-22T22:37:17.374Z,14.63
2019-05-22T22:39:54.103Z,15.07
2019-05-22T22:42:26.398Z,16.60
2019-05-22T22:44:57.311Z,19.10
2019-05-22T22:47:41.473Z,16.27
2019-05-22T22:50:12.973Z,16.60
2019-05-22T22:52:45.049Z,15.63
2019-05-22T22:55:19.169Z,13.00
2019-05-22T22:57:51.279Z,17.97
2019-05-22T23:00:32.996Z,16.37
2019-05-22T23:03:04.396Z,17.20
2019-05-22T23:05:35.676Z,19.13
2019-05-22T23:08:06.004Z,21.37
2019-05-22T23:10:36.268Z,14.13
2019-05-22T23:13:06.988Z,16.77
2019-05-22T23:15:36.953Z,14.40
2019-05-22T23:18:07.114Z,13.03
2019-05-22T23:20:35.886Z,14.70
2019-05-22T23:23:04.314Z,18.93
2019-05-22T23:25:34.247Z,21.83
2019-05-22T23:28:05.885Z,17.67
2019-05-22T23:30:36.711Z,15.70
2019-05-22T23:33:06.718Z,18.93
2019-05-22T23:35:37.120Z,20.17
2019-05-22T23:38:07.353Z,14.20
2019-05-22T23:40:37.450Z,13.27
2019-05-22T23:43:08.668Z,18.20
2019-05-22T23:45:38.759Z,16.20
2019-05-22T23:48:13.794Z,16.13
2019-05-22T23:50:44.452Z,24.43
2019-05-22T23:53:16.190Z,22.23
2019-05-22T23:55:46.434Z,21.80
2019-05-22T23:58:17.684Z,25.27
